Anaktuvuk Pass, Alaska
Current Conditions -  °F | °C
As of 2:36 PM on Friday 31 Oct 2014 (Local Time) from PAKP Reporting Station
Broken Clouds Broken Clouds  
Wind Chill: -9°   Ceiling: 2300
Heat Index:   Visibility: 5mi
Dew Point: -4°   Wind: 12mph
Humidity: 61%   Direction: 20°NNE
Pressure: 29.62"   Gusts: 21mph
Location:  68.14°N, 151.74°W
Report Text: PAKP 312236Z AUTO 02010G18KT 5SM FEW017 BKN023 BKN029 M14/M20 A2962 RMK AO1
Loading
Personal Weather Stations






























Interactive Weather Map
Tropical Storm Tracking
New forecast layout! Learn more

10-Day Weather Forecast

Advertisements
Track Severe Weather on mobile